Time,TemperatureF,DewpointF,PressureIn,WindDirection,WindDirectionDegrees,WindSpeedMPH,WindSpeedGustMPH,Humidity,HourlyPrecipIn,Conditions,Clouds,dailyrainin,SoftwareType,DateUTC
2013-07-11 00:00:00,76.6,75.1,29.98,SSW,209,0.0,0.0,95,0.00,,,0.00,VWS V14.00,2013-07-11 04:00:00,
2013-07-11 00:01:00,76.6,75.1,29.98,SSW,209,0.0,0.0,95,0.00,,,0.00,VWS V14.00,2013-07-11 04:01:00,
2013-07-11 00:02:00,76.6,75.1,29.98,SSW,209,0.0,0.0,95,0.00,,,0.00,VWS V14.00,2013-07-11 04:02:00,
2013-07-11 00:03:00,76.6,75.1,29.98,SSW,209,0.0,0.0,95,0.00,,,0.00,VWS V14.00,2013-07-11 04:03:00,
2013-07-11 00:08:00,76.5,75.0,29.97,SSW,209,0.0,0.0,95,0.00,,,0.00,VWS V14.00,2013-07-11 04:08:00,
2013-07-11 00:13:00,76.4,74.9,29.98,SSW,209,0.0,0.0,95,0.00,,,0.00,VWS V14.00,2013-07-11 04:13:00,
2013-07-11 00:18:00,76.4,74.9,29.98,SSW,209,0.0,0.0,95,0.00,,,0.00,VWS V14.00,2013-07-11 04:18:00,
2013-07-11 00:23:00,76.3,74.8,29.98,SSW,209,0.0,0.0,95,0.00,,,0.00,VWS V14.00,2013-07-11 04:23:00,
2013-07-11 00:29:00,76.3,75.1,29.98,SSW,209,0.0,0.0,96,0.00,,,0.00,VWS V14.00,2013-07-11 04:29:00,
2013-07-11 00:34:00,76.3,75.1,29.98,SSW,209,0.0,0.0,96,0.00,,,0.00,VWS V14.00,2013-07-11 04:34:00,
2013-07-11 00:39:00,76.2,75.0,29.97,SSW,209,0.0,0.0,96,0.00,,,0.00,VWS V14.00,2013-07-11 04:39:00,
2013-07-11 00:44:00,76.2,75.0,29.97,SSW,209,0.0,0.0,96,0.00,,,0.00,VWS V14.00,2013-07-11 04:44:00,
2013-07-11 00:49:00,76.1,74.9,29.97,SSW,209,0.0,0.0,96,0.00,,,0.00,VWS V14.00,2013-07-11 04:49:00,
2013-07-11 00:54:00,76.0,74.8,29.97,SSW,209,0.0,0.0,96,0.00,,,0.00,VWS V14.00,2013-07-11 04:54:00,
2013-07-11 01:00:00,75.9,74.7,29.97,SSW,209,0.0,0.0,96,0.00,,,0.00,VWS V14.00,2013-07-11 05:00:00,
2013-07-11 01:05:00,75.8,74.6,29.96,SSW,209,0.0,0.0,96,0.00,,,0.00,VWS V14.00,2013-07-11 05:05:00,
2013-07-11 01:10:00,75.7,74.5,29.95,SSW,209,0.0,0.0,96,0.00,,,0.00,VWS V14.00,2013-07-11 05:10:00,
2013-07-11 01:15:00,75.6,74.4,29.95,SSW,209,0.0,0.0,96,0.00,,,0.00,VWS V14.00,2013-07-11 05:15:00,
2013-07-11 01:20:00,75.5,74.3,29.95,SSW,209,0.0,0.0,96,0.00,,,0.00,VWS V14.00,2013-07-11 05:20:00,
2013-07-11 01:26:00,75.4,74.2,29.95,SSW,209,0.0,0.0,96,0.00,,,0.00,VWS V14.00,2013-07-11 05:26:00,
2013-07-11 01:31:00,75.4,74.2,29.95,SSW,209,0.0,0.0,96,0.00,,,0.00,VWS V14.00,2013-07-11 05:31:00,
2013-07-11 01:36:00,75.4,74.5,29.95,SSW,209,0.0,0.0,97,0.00,,,0.00,VWS V14.00,2013-07-11 05:36:00,
2013-07-11 01:41:00,75.3,74.4,29.95,SSW,209,0.0,0.0,97,0.00,,,0.00,VWS V14.00,2013-07-11 05:41:00,
2013-07-11 01:46:00,75.2,74.3,29.95,SSW,209,0.0,0.0,97,0.00,,,0.00,VWS V14.00,2013-07-11 05:46:00,
2013-07-11 01:51:00,75.2,74.3,29.95,SSW,209,0.0,0.0,97,0.00,,,0.00,VWS V14.00,2013-07-11 05:51:00,
2013-07-11 01:56:00,75.1,74.2,29.95,SSW,209,0.0,0.0,97,0.00,,,0.00,VWS V14.00,2013-07-11 05:56:00,
2013-07-11 02:01:00,75.1,74.2,29.95,SSW,209,0.0,0.0,97,0.00,,,0.00,VWS V14.00,2013-07-11 06:01:00,
2013-07-11 02:07:00,75.0,74.1,29.95,SSW,209,0.0,0.0,97,0.00,,,0.00,VWS V14.00,2013-07-11 06:07:00,
2013-07-11 02:12:00,74.8,73.9,29.95,SSW,209,0.0,0.0,97,0.00,,,0.00,VWS V14.00,2013-07-11 06:12:00,
2013-07-11 02:17:00,74.8,73.9,29.95,SSW,209,0.0,0.0,97,0.00,,,0.00,VWS V14.00,2013-07-11 06:17:00,
2013-07-11 02:22:00,74.7,73.8,29.94,SSW,209,0.0,0.0,97,0.00,,,0.00,VWS V14.00,2013-07-11 06:22:00,
2013-07-11 02:27:00,74.6,73.7,29.95,SSW,209,0.0,0.0,97,0.00,,,0.00,VWS V14.00,2013-07-11 06:27:00,
2013-07-11 02:32:00,74.7,73.8,29.94,SSW,209,0.0,0.0,97,0.00,,,0.00,VWS V14.00,2013-07-11 06:32:00,
2013-07-11 02:38:00,74.9,74.3,29.95,SSW,209,0.0,0.0,98,0.00,,,0.00,VWS V14.00,2013-07-11 06:38:00,
2013-07-11 02:43:00,74.7,73.8,29.95,SSW,209,0.0,0.0,97,0.00,,,0.00,VWS V14.00,2013-07-11 06:43:00,
2013-07-11 02:48:00,74.6,73.7,29.95,SSW,209,0.0,0.0,97,0.00,,,0.00,VWS V14.00,2013-07-11 06:48:00,
2013-07-11 02:53:00,74.7,74.1,29.95,SSW,209,0.0,0.0,98,0.00,,,0.00,VWS V14.00,2013-07-11 06:53:00,
2013-07-11 02:58:00,74.9,74.3,29.94,SSW,209,0.0,0.0,98,0.00,,,0.00,VWS V14.00,2013-07-11 06:58:00,
2013-07-11 03:03:00,75.0,74.4,29.94,SSW,209,0.0,0.0,98,0.00,,,0.00,VWS V14.00,2013-07-11 07:03:00,
2013-07-11 03:08:00,74.9,74.0,29.94,SSW,209,0.0,0.0,97,0.00,,,0.00,VWS V14.00,2013-07-11 07:08:00,
2013-07-11 03:14:00,74.7,73.8,29.94,SSW,209,0.0,0.0,97,0.00,,,0.00,VWS V14.00,2013-07-11 07:14:00,
2013-07-11 03:19:00,74.6,73.7,29.94,SSW,209,0.0,0.0,97,0.00,,,0.00,VWS V14.00,2013-07-11 07:19:00,
2013-07-11 03:24:00,74.5,73.6,29.94,SSW,209,0.0,0.0,97,0.00,,,0.00,VWS V14.00,2013-07-11 07:24:00,
2013-07-11 03:29:00,74.4,73.5,29.94,SSW,209,0.0,0.0,97,0.00,,,0.00,VWS V14.00,2013-07-11 07:29:00,
2013-07-11 03:34:00,74.4,73.8,29.94,SSW,209,0.0,0.0,98,0.00,,,0.00,VWS V14.00,2013-07-11 07:34:00,
2013-07-11 03:40:00,74.6,74.0,29.94,SSW,209,0.0,0.0,98,0.00,,,0.00,VWS V14.00,2013-07-11 07:40:00,
2013-07-11 03:45:00,74.8,74.2,29.93,SSW,209,0.0,0.0,98,0.00,,,0.00,VWS V14.00,2013-07-11 07:45:00,
2013-07-11 03:50:00,75.0,74.4,29.93,SSW,209,0.0,1.0,98,0.00,,,0.00,VWS V14.00,2013-07-11 07:50:00,
2013-07-11 03:55:00,75.1,74.5,29.94,SSW,209,0.0,0.0,98,0.00,,,0.00,VWS V14.00,2013-07-11 07:55:00,
2013-07-11 04:00:00,74.9,74.3,29.93,SSW,209,0.0,1.0,98,0.00,,,0.00,VWS V14.00,2013-07-11 08:00:00,
2013-07-11 04:05:00,74.9,74.3,29.94,SSW,209,0.0,0.0,98,0.00,,,0.00,VWS V14.00,2013-07-11 08:05:00,
2013-07-11 04:11:00,75.1,74.5,29.93,SSW,209,0.0,0.0,98,0.00,,,0.00,VWS V14.00,2013-07-11 08:11:00,
2013-07-11 04:16:00,75.1,74.5,29.93,SSW,209,0.0,0.0,98,0.00,,,0.00,VWS V14.00,2013-07-11 08:16:00,
2013-07-11 04:21:00,75.3,74.7,29.94,SSW,209,0.0,0.0,98,0.00,,,0.00,VWS V14.00,2013-07-11 08:21:00,
2013-07-11 04:26:00,75.5,74.9,29.94,SSW,209,0.0,0.0,98,0.00,,,0.00,VWS V14.00,2013-07-11 08:26:00,
2013-07-11 04:31:00,75.4,74.8,29.94,SSW,209,0.0,0.0,98,0.00,,,0.00,VWS V14.00,2013-07-11 08:31:00,
2013-07-11 04:32:00,75.4,74.8,29.94,SSW,209,0.0,0.0,98,0.00,,,0.00,VWS V14.00,2013-07-11 08:32:00,
2013-07-11 04:37:00,75.3,74.7,29.94,SSW,209,0.0,0.0,98,0.00,,,0.00,VWS V14.00,2013-07-11 08:37:00,
2013-07-11 04:42:00,75.3,74.7,29.94,SSW,209,0.0,0.0,98,0.00,,,0.00,VWS V14.00,2013-07-11 08:42:00,
2013-07-11 04:47:00,75.4,74.8,29.94,SSW,209,0.0,0.0,98,0.00,,,0.00,VWS V14.00,2013-07-11 08:47:00,
2013-07-11 04:52:00,75.5,74.9,29.94,SSW,209,0.0,0.0,98,0.00,,,0.00,VWS V14.00,2013-07-11 08:52:00,
2013-07-11 04:58:00,75.7,75.1,29.93,SSW,209,0.0,0.0,98,0.00,,,0.00,VWS V14.00,2013-07-11 08:58:00,
2013-07-11 05:03:00,75.7,75.1,29.93,SSW,209,0.0,0.0,98,0.00,,,0.00,VWS V14.00,2013-07-11 09:03:00,
2013-07-11 05:08:00,75.7,75.1,29.93,SSW,209,0.0,0.0,98,0.00,,,0.00,VWS V14.00,2013-07-11 09:08:00,
2013-07-11 05:13:00,75.8,75.2,29.93,SSW,209,0.0,0.0,98,0.00,,,0.00,VWS V14.00,2013-07-11 09:13:00,
2013-07-11 05:18:00,75.8,75.2,29.94,SSW,209,0.0,0.0,98,0.00,,,0.00,VWS V14.00,2013-07-11 09:18:00,
2013-07-11 05:23:00,75.9,75.3,29.94,SSW,209,0.0,0.0,98,0.00,,,0.00,VWS V14.00,2013-07-11 09:23:00,
2013-07-11 05:29:00,75.7,74.8,29.94,SSW,209,0.0,0.0,97,0.00,,,0.00,VWS V14.00,2013-07-11 09:29:00,
2013-07-11 05:34:00,75.6,74.7,29.94,SSW,209,0.0,0.0,97,0.00,,,0.00,VWS V14.00,2013-07-11 09:34:00,
2013-07-11 05:39:00,75.6,75.0,29.94,SSW,209,0.0,0.0,98,0.00,,,0.00,VWS V14.00,2013-07-11 09:39:00,
2013-07-11 05:44:00,75.7,75.1,29.94,SSW,209,0.0,0.0,98,0.00,,,0.00,VWS V14.00,2013-07-11 09:44:00,
2013-07-11 05:49:00,75.6,74.7,29.94,SSW,209,0.0,0.0,97,0.00,,,0.00,VWS V14.00,2013-07-11 09:49:00,
2013-07-11 05:55:00,75.5,74.6,29.94,SSW,209,0.0,0.0,97,0.00,,,0.00,VWS V14.00,2013-07-11 09:55:00,
2013-07-11 06:00:00,75.3,74.4,29.94,SSE,157,0.0,0.0,97,0.00,,,0.00,VWS V14.00,2013-07-11 10:00:00,
2013-07-11 06:05:00,75.3,74.4,29.94,NE,47,0.0,0.0,97,0.00,,,0.00,VWS V14.00,2013-07-11 10:05:00,
2013-07-11 06:10:00,75.1,74.2,29.95,NE,48,0.0,0.0,97,0.00,,,0.00,VWS V14.00,2013-07-11 10:10:00,
2013-07-11 06:15:00,75.0,74.1,29.95,NE,48,0.0,0.0,97,0.00,,,0.00,VWS V14.00,2013-07-11 10:15:00,
2013-07-11 06:20:00,75.2,74.6,29.95,NE,48,0.0,0.0,98,0.00,,,0.00,VWS V14.00,2013-07-11 10:20:00,
2013-07-11 06:26:00,75.3,74.7,29.96,NE,48,0.0,0.0,98,0.00,,,0.00,VWS V14.00,2013-07-11 10:26:00,
2013-07-11 06:31:00,75.3,74.7,29.96,NE,48,0.0,0.0,98,0.00,,,0.00,VWS V14.00,2013-07-11 10:31:00,
2013-07-11 06:36:00,75.2,74.6,29.96,NE,48,0.0,0.0,98,0.00,,,0.00,VWS V14.00,2013-07-11 10:36:00,
2013-07-11 06:41:00,75.2,74.6,29.96,NE,48,0.0,0.0,98,0.00,,,0.00,VWS V14.00,2013-07-11 10:41:00,
2013-07-11 06:46:00,75.3,74.7,29.95,NE,48,0.0,0.0,98,0.00,,,0.00,VWS V14.00,2013-07-11 10:46:00,
2013-07-11 06:51:00,75.2,74.6,29.95,NE,48,0.0,0.0,98,0.00,,,0.00,VWS V14.00,2013-07-11 10:51:00,
2013-07-11 06:56:00,75.2,74.6,29.95,NE,48,0.0,0.0,98,0.00,,,0.00,VWS V14.00,2013-07-11 10:56:00,
2013-07-11 07:01:00,75.5,74.9,29.95,NE,48,0.0,0.0,98,0.00,,,0.00,VWS V14.00,2013-07-11 11:01:00,
2013-07-11 07:06:00,75.5,74.9,29.95,NE,48,0.0,0.0,98,0.00,,,0.00,VWS V14.00,2013-07-11 11:06:00,
2013-07-11 07:11:00,75.6,75.0,29.95,NE,48,0.0,0.0,98,0.00,,,0.00,VWS V14.00,2013-07-11 11:11:00,
2013-07-11 07:17:00,75.7,75.1,29.95,NE,48,0.0,1.0,98,0.00,,,0.00,VWS V14.00,2013-07-11 11:17:00,
2013-07-11 07:22:00,76.0,75.4,29.95,NE,48,0.0,0.0,98,0.00,,,0.00,VWS V14.00,2013-07-11 11:22:00,
2013-07-11 07:27:00,76.2,75.6,29.96,NE,48,0.0,0.0,98,0.00,,,0.00,VWS V14.00,2013-07-11 11:27:00,
2013-07-11 07:32:00,76.5,76.2,29.96,NNW,327,5.0,7.0,99,0.02,,,0.02,VWS V14.00,2013-07-11 11:32:00,
2013-07-11 07:37:00,76.8,76.2,29.96,NW,304,0.0,7.0,98,0.06,,,0.06,VWS V14.00,2013-07-11 11:37:00,
2013-07-11 07:42:00,76.9,76.3,29.96,NW,307,2.0,3.0,98,0.08,,,0.08,VWS V14.00,2013-07-11 11:42:00,
2013-07-11 07:47:00,77.0,76.4,29.96,NW,323,0.0,4.0,98,0.09,,,0.09,VWS V14.00,2013-07-11 11:47:00,
2013-07-11 07:52:00,77.1,76.5,29.96,SW,233,1.0,1.0,98,0.09,,,0.09,VWS V14.00,2013-07-11 11:52:00,
2013-07-11 07:57:00,77.2,76.6,29.96,NW,312,0.0,3.0,98,0.09,,,0.09,VWS V14.00,2013-07-11 11:57:00,
2013-07-11 08:03:00,77.4,76.8,29.96,NNW,332,2.0,2.0,98,0.09,,,0.09,VWS V14.00,2013-07-11 12:03:00,
2013-07-11 08:08:00,77.5,76.9,29.96,West,269,0.0,3.0,98,0.09,,,0.09,VWS V14.00,2013-07-11 12:08:00,
2013-07-11 08:13:00,77.6,77.0,29.97,West,261,0.0,2.0,98,0.09,,,0.09,VWS V14.00,2013-07-11 12:13:00,
2013-07-11 08:18:00,77.6,77.0,29.97,WNW,300,1.0,4.0,98,0.09,,,0.09,VWS V14.00,2013-07-11 12:18:00,
2013-07-11 08:23:00,77.6,77.0,29.97,NNW,341,0.0,4.0,98,0.09,,,0.09,VWS V14.00,2013-07-11 12:23:00,
2013-07-11 08:29:00,77.6,76.7,29.97,NW,313,0.0,7.0,97,0.09,,,0.09,VWS V14.00,2013-07-11 12:29:00,
2013-07-11 08:34:00,77.8,77.2,29.96,NW,325,0.0,2.0,98,0.08,,,0.09,VWS V14.00,2013-07-11 12:34:00,
2013-07-11 08:39:00,78.1,77.5,29.96,NW,319,0.0,3.0,98,0.08,,,0.09,VWS V14.00,2013-07-11 12:39:00,
2013-07-11 08:44:00,78.0,77.1,29.96,NW,319,0.0,3.0,97,0.02,,,0.09,VWS V14.00,2013-07-11 12:44:00,
2013-07-11 08:49:00,78.1,77.2,29.97,NW,319,0.0,3.0,97,0.06,,,0.13,VWS V14.00,2013-07-11 12:49:00,
2013-07-11 08:55:00,78.1,77.2,29.96,SE,126,1.0,4.0,97,0.15,,,0.24,VWS V14.00,2013-07-11 12:55:00,
2013-07-11 09:00:00,77.9,77.0,29.97,SSW,211,0.0,4.0,97,0.15,,,0.24,VWS V14.00,2013-07-11 13:00:00,
2013-07-11 09:05:00,77.9,77.3,29.97,SSW,211,0.0,0.0,98,0.15,,,0.24,VWS V14.00,2013-07-11 13:05:00,
2013-07-11 09:10:00,77.9,77.3,29.97,SSW,211,0.0,1.0,98,0.15,,,0.24,VWS V14.00,2013-07-11 13:10:00,
2013-07-11 09:16:00,77.8,77.2,29.97,SSW,211,0.0,0.0,98,0.15,,,0.24,VWS V14.00,2013-07-11 13:16:00,
2013-07-11 09:21:00,77.9,77.3,29.97,SSW,211,0.0,0.0,98,0.15,,,0.24,VWS V14.00,2013-07-11 13:21:00,
2013-07-11 09:26:00,77.9,77.3,29.96,SSW,211,0.0,0.0,98,0.15,,,0.24,VWS V14.00,2013-07-11 13:26:00,
2013-07-11 09:32:00,78.4,78.1,29.96,SSW,211,0.0,0.0,99,0.15,,,0.24,VWS V14.00,2013-07-11 13:32:00,
2013-07-11 09:37:00,78.8,78.5,29.96,SSW,211,0.0,1.0,99,0.15,,,0.24,VWS V14.00,2013-07-11 13:37:00,
2013-07-11 09:42:00,78.9,78.3,29.96,SSW,211,0.0,0.0,98,0.16,,,0.25,VWS V14.00,2013-07-11 13:42:00,
2013-07-11 09:47:00,79.2,78.9,29.96,SSW,211,0.0,0.0,99,0.16,,,0.25,VWS V14.00,2013-07-11 13:47:00,
2013-07-11 09:53:00,79.4,79.1,29.96,SSW,211,0.0,0.0,99,0.11,,,0.25,VWS V14.00,2013-07-11 13:53:00,
2013-07-11 09:59:00,79.6,79.0,29.96,SSW,211,0.0,2.0,98,0.11,,,0.25,VWS V14.00,2013-07-11 13:59:00,
2013-07-11 10:04:00,79.7,79.1,29.95,SSW,211,1.0,2.0,98,0.01,,,0.25,VWS V14.00,2013-07-11 14:04:00,
2013-07-11 10:09:00,79.8,79.2,29.95,SSW,211,0.0,2.0,98,0.01,,,0.25,VWS V14.00,2013-07-11 14:09:00,
2013-07-11 10:14:00,80.3,80.0,29.95,NW,304,0.0,3.0,99,0.01,,,0.25,VWS V14.00,2013-07-11 14:14:00,
2013-07-11 10:20:00,80.8,80.2,29.95,NW,304,0.0,3.0,98,0.01,,,0.25,VWS V14.00,2013-07-11 14:20:00,
2013-07-11 10:25:00,81.7,81.4,29.95,NW,313,0.0,2.0,99,0.01,,,0.25,VWS V14.00,2013-07-11 14:25:00,
2013-07-11 10:30:00,82.4,81.8,29.95,WSW,257,2.0,4.0,98,0.01,,,0.25,VWS V14.00,2013-07-11 14:30:00,
2013-07-11 10:36:00,82.3,80.7,29.95,WSW,258,0.0,4.0,95,0.01,,,0.25,VWS V14.00,2013-07-11 14:36:00,
2013-07-11 10:41:00,82.7,80.1,29.95,WSW,256,2.0,2.0,92,0.01,,,0.25,VWS V14.00,2013-07-11 14:41:00,
2013-07-11 10:46:00,83.4,81.2,29.95,SSE,167,3.0,4.0,93,0.01,,,0.25,VWS V14.00,2013-07-11 14:46:00,
2013-07-11 10:51:00,83.8,80.9,29.95,NNE,23,0.0,4.0,91,0.01,,,0.25,VWS V14.00,2013-07-11 14:51:00,
2013-07-11 10:56:00,84.0,80.8,29.95,SW,233,1.0,3.0,90,0.00,,,0.25,VWS V14.00,2013-07-11 14:56:00,
2013-07-11 11:01:00,84.3,80.4,29.95,West,272,0.0,0.0,88,0.00,,,0.25,VWS V14.00,2013-07-11 15:01:00,
2013-07-11 11:06:00,84.3,78.9,29.95,NNW,330,1.0,5.0,84,0.00,,,0.25,VWS V14.00,2013-07-11 15:06:00,
2013-07-11 11:11:00,84.5,79.1,29.95,WNW,300,1.0,2.0,84,0.00,,,0.25,VWS V14.00,2013-07-11 15:11:00,
2013-07-11 11:17:00,84.7,78.6,29.95,WNW,286,1.0,6.0,82,0.00,,,0.25,VWS V14.00,2013-07-11 15:17:00,
2013-07-11 11:22:00,85.1,77.9,29.95,West,274,4.0,5.0,79,0.00,,,0.25,VWS V14.00,2013-07-11 15:22:00,
2013-07-11 11:27:00,85.6,79.8,29.95,WSW,240,1.0,11.0,83,0.00,,,0.25,VWS V14.00,2013-07-11 15:27:00,
2013-07-11 11:32:00,85.9,77.9,29.95,WNW,297,6.0,10.0,77,0.00,,,0.25,VWS V14.00,2013-07-11 15:32:00,
2013-07-11 11:38:00,86.1,77.7,29.95,WSW,248,1.0,10.0,76,0.00,,,0.25,VWS V14.00,2013-07-11 15:38:00,
2013-07-11 11:43:00,86.4,77.9,29.94,NW,305,3.0,3.0,76,0.00,,,0.25,VWS V14.00,2013-07-11 15:43:00,
2013-07-11 11:48:00,86.5,78.4,29.94,NW,320,4.0,11.0,77,0.00,,,0.25,VWS V14.00,2013-07-11 15:48:00,
2013-07-11 11:53:00,86.7,77.8,29.94,SSW,194,3.0,6.0,75,0.00,,,0.25,VWS V14.00,2013-07-11 15:53:00,
2013-07-11 11:58:00,87.3,78.4,29.94,North,355,1.0,6.0,75,0.00,,,0.25,VWS V14.00,2013-07-11 15:58:00,
2013-07-11 12:04:00,87.3,78.8,29.94,WNW,301,4.0,6.0,76,0.00,,,0.25,VWS V14.00,2013-07-11 16:04:00,
2013-07-11 12:09:00,87.3,78.8,29.94,NW,307,0.0,6.0,76,0.00,,,0.25,VWS V14.00,2013-07-11 16:09:00,
2013-07-11 12:14:00,87.6,79.5,29.94,WNW,292,1.0,3.0,77,0.00,,,0.25,VWS V14.00,2013-07-11 16:14:00,
2013-07-11 12:19:00,87.6,78.7,29.94,NNW,342,3.0,5.0,75,0.00,,,0.25,VWS V14.00,2013-07-11 16:19:00,
2013-07-11 12:24:00,87.6,78.3,29.94,NNW,345,0.0,6.0,74,0.00,,,0.25,VWS V14.00,2013-07-11 16:24:00,
2013-07-11 12:29:00,88.2,78.4,29.94,NW,309,10.0,13.0,73,0.00,,,0.25,VWS V14.00,2013-07-11 16:29:00,
2013-07-11 12:34:00,88.2,77.6,29.94,NNW,336,2.0,9.0,71,0.00,,,0.25,VWS V14.00,2013-07-11 16:34:00,
2013-07-11 12:39:00,88.3,79.4,29.94,West,279,0.0,9.0,75,0.00,,,0.25,VWS V14.00,2013-07-11 16:39:00,
2013-07-11 12:45:00,88.6,79.7,29.93,SSW,199,1.0,6.0,75,0.00,,,0.25,VWS V14.00,2013-07-11 16:45:00,
2013-07-11 12:51:00,88.5,78.7,29.93,NW,326,1.0,6.0,73,0.00,,,0.25,VWS V14.00,2013-07-11 16:51:00,
2013-07-11 12:56:00,88.5,77.9,29.94,NW,304,2.0,6.0,71,0.00,,,0.25,VWS V14.00,2013-07-11 16:56:00,
2013-07-11 13:01:00,88.2,77.6,29.94,NW,322,0.0,0.0,71,0.00,,,0.25,VWS V14.00,2013-07-11 17:01:00,
2013-07-11 13:06:00,88.3,79.4,29.93,ENE,68,3.0,6.0,75,0.00,,,0.25,VWS V14.00,2013-07-11 17:06:00,
2013-07-11 13:12:00,88.2,78.4,29.93,South,171,0.0,5.0,73,0.00,,,0.25,VWS V14.00,2013-07-11 17:12:00,
2013-07-11 13:18:00,88.6,78.0,29.93,NW,309,6.0,7.0,71,0.00,,,0.25,VWS V14.00,2013-07-11 17:18:00,
2013-07-11 13:23:00,88.2,78.0,29.92,SW,224,3.0,5.0,72,0.00,,,0.25,VWS V14.00,2013-07-11 17:23:00,
2013-07-11 13:28:00,88.0,78.3,29.92,WNW,288,0.0,7.0,73,0.00,,,0.25,VWS V14.00,2013-07-11 17:28:00,
2013-07-11 13:33:00,88.1,78.8,29.92,NNW,344,2.0,5.0,74,0.00,,,0.25,VWS V14.00,2013-07-11 17:33:00,
2013-07-11 13:38:00,88.1,79.2,29.92,West,278,2.0,5.0,75,0.00,,,0.25,VWS V14.00,2013-07-11 17:38:00,
2013-07-11 13:43:00,88.7,78.1,29.92,WNW,299,2.0,3.0,71,0.00,,,0.25,VWS V14.00,2013-07-11 17:43:00,
2013-07-11 13:48:00,89.1,78.9,29.92,SSE,157,4.0,6.0,72,0.00,,,0.25,VWS V14.00,2013-07-11 17:48:00,
2013-07-11 13:54:00,89.4,77.9,29.92,WSW,257,5.0,5.0,69,0.00,,,0.25,VWS V14.00,2013-07-11 17:54:00,
2013-07-11 13:59:00,89.4,77.9,29.92,SE,125,2.0,7.0,69,0.00,,,0.25,VWS V14.00,2013-07-11 17:59:00,
2013-07-11 14:04:00,89.0,77.5,29.91,West,267,0.0,7.0,69,0.00,,,0.25,VWS V14.00,2013-07-11 18:04:00,
2013-07-11 14:10:00,89.3,78.2,29.91,SSW,205,3.0,7.0,70,0.00,,,0.25,VWS V14.00,2013-07-11 18:10:00,
2013-07-11 14:14:00,89.1,78.0,29.91,WNW,290,2.0,4.0,70,0.00,,,0.25,VWS V14.00,2013-07-11 18:14:00,
2013-07-11 14:20:00,88.9,78.7,29.91,West,263,3.0,4.0,72,0.00,,,0.25,VWS V14.00,2013-07-11 18:20:00,
2013-07-11 14:25:00,89.0,78.8,29.91,SSW,209,0.0,5.0,72,0.00,,,0.25,VWS V14.00,2013-07-11 18:25:00,
2013-07-11 14:30:00,89.1,77.2,29.91,SSW,198,4.0,7.0,68,0.00,,,0.25,VWS V14.00,2013-07-11 18:30:00,
2013-07-11 14:35:00,88.8,77.8,29.91,South,186,3.0,5.0,70,0.00,,,0.25,VWS V14.00,2013-07-11 18:35:00,
2013-07-11 14:41:00,88.8,76.9,29.91,North,355,3.0,7.0,68,0.00,,,0.25,VWS V14.00,2013-07-11 18:41:00,
2013-07-11 14:46:00,88.5,77.5,29.91,South,172,1.0,11.0,70,0.00,,,0.25,VWS V14.00,2013-07-11 18:46:00,
2013-07-11 14:51:00,88.3,76.8,29.91,North,355,2.0,11.0,69,0.00,,,0.25,VWS V14.00,2013-07-11 18:51:00,
2013-07-11 14:56:00,88.2,77.2,29.91,WSW,239,2.0,10.0,70,0.00,,,0.25,VWS V14.00,2013-07-11 18:56:00,
2013-07-11 15:01:00,88.2,77.2,29.90,West,263,3.0,11.0,70,0.00,,,0.25,VWS V14.00,2013-07-11 19:01:00,
2013-07-11 15:06:00,87.9,77.3,29.90,WSW,254,3.0,5.0,71,0.00,,,0.25,VWS V14.00,2013-07-11 19:06:00,
2013-07-11 15:11:00,88.1,77.5,29.90,West,265,4.0,4.0,71,0.00,,,0.25,VWS V14.00,2013-07-11 19:11:00,
2013-07-11 15:16:00,88.1,77.1,29.90,SW,223,2.0,9.0,70,0.00,,,0.25,VWS V14.00,2013-07-11 19:16:00,
2013-07-11 15:21:00,88.1,77.1,29.90,West,263,2.0,3.0,70,0.00,,,0.25,VWS V14.00,2013-07-11 19:21:00,
2013-07-11 15:26:00,88.2,76.8,29.89,WNW,291,1.0,9.0,69,0.00,,,0.25,VWS V14.00,2013-07-11 19:26:00,
2013-07-11 15:32:00,88.4,77.4,29.89,NW,310,6.0,6.0,70,0.00,,,0.25,VWS V14.00,2013-07-11 19:32:00,
2013-07-11 15:37:00,88.1,77.5,29.89,SW,216,7.0,13.0,71,0.00,,,0.25,VWS V14.00,2013-07-11 19:37:00,
2013-07-11 15:42:00,87.8,77.2,29.89,West,277,1.0,5.0,71,0.00,,,0.25,VWS V14.00,2013-07-11 19:42:00,
2013-07-11 15:47:00,87.9,77.8,29.89,NW,326,3.0,6.0,72,0.00,,,0.25,VWS V14.00,2013-07-11 19:47:00,
2013-07-11 15:52:00,87.9,78.6,29.89,NW,313,5.0,5.0,74,0.00,,,0.25,VWS V14.00,2013-07-11 19:52:00,
2013-07-11 15:58:00,88.0,77.8,29.89,SSW,208,1.0,6.0,72,0.00,,,0.25,VWS V14.00,2013-07-11 19:58:00,
2013-07-11 16:03:00,88.3,78.6,29.88,SSE,166,3.0,8.0,73,0.00,,,0.25,VWS V14.00,2013-07-11 20:03:00,
2013-07-11 16:08:00,88.1,78.4,29.88,WNW,302,3.0,8.0,73,0.00,,,0.25,VWS V14.00,2013-07-11 20:08:00,
2013-07-11 16:13:00,87.8,78.5,29.88,SW,215,5.0,7.0,74,0.00,,,0.25,VWS V14.00,2013-07-11 20:13:00,
2013-07-11 16:18:00,87.9,78.6,29.88,SSE,165,0.0,7.0,74,0.00,,,0.25,VWS V14.00,2013-07-11 20:18:00,
2013-07-11 16:24:00,87.9,78.2,29.88,NW,321,1.0,7.0,73,0.00,,,0.25,VWS V14.00,2013-07-11 20:24:00,
2013-07-11 16:29:00,87.7,78.0,29.88,WNW,288,0.0,7.0,73,0.00,,,0.25,VWS V14.00,2013-07-11 20:29:00,
2013-07-11 16:34:00,87.9,78.6,29.87,SSE,150,0.0,6.0,74,0.00,,,0.25,VWS V14.00,2013-07-11 20:34:00,
2013-07-11 16:40:00,88.0,78.3,29.87,West,279,2.0,8.0,73,0.00,,,0.25,VWS V14.00,2013-07-11 20:40:00,
2013-07-11 16:45:00,87.8,78.5,29.87,WNW,287,2.0,10.0,74,0.00,,,0.25,VWS V14.00,2013-07-11 20:45:00,
2013-07-11 16:50:00,87.2,77.9,29.87,WSW,254,3.0,11.0,74,0.00,,,0.25,VWS V14.00,2013-07-11 20:50:00,
2013-07-11 16:56:00,86.9,78.0,29.87,West,263,1.0,10.0,75,0.00,,,0.25,VWS V14.00,2013-07-11 20:56:00,
2013-07-11 17:01:00,87.2,79.1,29.87,West,277,2.0,10.0,77,0.00,,,0.25,VWS V14.00,2013-07-11 21:01:00,
2013-07-11 17:06:00,87.5,78.6,29.87,South,183,5.0,5.0,75,0.00,,,0.25,VWS V14.00,2013-07-11 21:06:00,
2013-07-11 17:12:00,87.2,78.7,29.87,WNW,291,4.0,10.0,76,0.00,,,0.25,VWS V14.00,2013-07-11 21:12:00,
2013-07-11 17:17:00,86.7,77.4,29.87,WSW,257,1.0,10.0,74,0.00,,,0.25,VWS V14.00,2013-07-11 21:17:00,
2013-07-11 17:22:00,86.3,78.6,29.87,South,190,2.0,11.0,78,0.00,,,0.25,VWS V14.00,2013-07-11 21:22:00,
2013-07-11 17:27:00,85.8,78.9,29.87,West,279,3.0,11.0,80,0.00,,,0.25,VWS V14.00,2013-07-11 21:27:00,
2013-07-11 17:32:00,85.4,78.2,29.88,WNW,300,3.0,4.0,79,0.00,,,0.25,VWS V14.00,2013-07-11 21:32:00,
2013-07-11 17:37:00,85.2,78.7,29.88,WNW,292,1.0,7.0,81,0.00,,,0.25,VWS V14.00,2013-07-11 21:37:00,
2013-07-11 17:42:00,85.1,77.9,29.88,North,5,1.0,5.0,79,0.00,,,0.25,VWS V14.00,2013-07-11 21:42:00,
2013-07-11 17:47:00,85.3,77.7,29.87,WSW,238,2.0,5.0,78,0.00,,,0.25,VWS V14.00,2013-07-11 21:47:00,
2013-07-11 17:53:00,85.2,77.9,29.88,South,180,0.0,3.0,79,0.00,,,0.25,VWS V14.00,2013-07-11 21:53:00,
2013-07-11 17:58:00,85.1,77.9,29.88,North,355,1.0,5.0,79,0.00,,,0.25,VWS V14.00,2013-07-11 21:58:00,
2013-07-11 18:03:00,84.8,77.6,29.88,SW,219,4.0,4.0,79,0.00,,,0.25,VWS V14.00,2013-07-11 22:03:00,
2013-07-11 18:08:00,84.5,77.7,29.88,SSW,206,2.0,4.0,80,0.00,,,0.25,VWS V14.00,2013-07-11 22:08:00,
2013-07-11 18:13:00,84.3,77.5,29.88,NE,45,2.0,5.0,80,0.00,,,0.25,VWS V14.00,2013-07-11 22:13:00,
2013-07-11 18:19:00,84.5,77.7,29.87,West,263,1.0,5.0,80,0.00,,,0.25,VWS V14.00,2013-07-11 22:19:00,
2013-07-11 18:24:00,84.6,77.8,29.87,ENE,66,0.0,4.0,80,0.00,,,0.25,VWS V14.00,2013-07-11 22:24:00,
2013-07-11 18:29:00,84.6,77.8,29.87,SSW,213,0.0,9.0,80,0.00,,,0.25,VWS V14.00,2013-07-11 22:29:00,
2013-07-11 18:35:00,84.5,77.7,29.88,West,259,0.0,5.0,80,0.00,,,0.25,VWS V14.00,2013-07-11 22:35:00,
2013-07-11 18:40:00,84.6,77.8,29.87,South,177,0.0,5.0,80,0.00,,,0.25,VWS V14.00,2013-07-11 22:40:00,
2013-07-11 18:45:00,84.5,77.7,29.87,WNW,295,0.0,7.0,80,0.00,,,0.25,VWS V14.00,2013-07-11 22:45:00,
2013-07-11 18:50:00,84.5,77.7,29.87,NNW,328,4.0,7.0,80,0.00,,,0.25,VWS V14.00,2013-07-11 22:50:00,
2013-07-11 18:56:00,84.4,77.9,29.87,SSW,213,1.0,6.0,81,0.00,,,0.25,VWS V14.00,2013-07-11 22:56:00,
2013-07-11 19:01:00,84.1,78.0,29.87,ESE,117,2.0,6.0,82,0.00,,,0.25,VWS V14.00,2013-07-11 23:01:00,
2013-07-11 19:06:00,83.8,77.7,29.88,SW,227,2.0,3.0,82,0.00,,,0.25,VWS V14.00,2013-07-11 23:06:00,
2013-07-11 19:11:00,83.5,77.8,29.87,WNW,284,2.0,2.0,83,0.00,,,0.25,VWS V14.00,2013-07-11 23:11:00,
2013-07-11 19:17:00,83.3,78.0,29.88,South,186,3.0,9.0,84,0.00,,,0.25,VWS V14.00,2013-07-11 23:17:00,
2013-07-11 19:23:00,83.1,78.1,29.88,SSW,204,2.0,4.0,85,0.00,,,0.25,VWS V14.00,2013-07-11 23:23:00,
2013-07-11 19:28:00,82.9,77.9,29.88,NW,304,0.0,4.0,85,0.00,,,0.25,VWS V14.00,2013-07-11 23:28:00,
2013-07-11 19:33:00,82.7,77.7,29.88,SW,214,1.0,4.0,85,0.00,,,0.25,VWS V14.00,2013-07-11 23:33:00,
2013-07-11 19:39:00,82.6,78.0,29.87,SW,219,1.0,4.0,86,0.00,,,0.25,VWS V14.00,2013-07-11 23:39:00,
2013-07-11 19:45:00,82.4,77.8,29.87,West,279,0.0,6.0,86,0.00,,,0.25,VWS V14.00,2013-07-11 23:45:00,
2013-07-11 19:50:00,82.3,77.7,29.88,SSE,156,3.0,6.0,86,0.00,,,0.25,VWS V14.00,2013-07-11 23:50:00,
2013-07-11 19:56:00,82.1,77.5,29.88,SW,218,0.0,3.0,86,0.00,,,0.25,VWS V14.00,2013-07-11 23:56:00,
2013-07-11 20:01:00,82.0,77.8,29.88,SW,219,0.0,3.0,87,0.00,,,0.25,VWS V14.00,2013-07-12 00:01:00,
2013-07-11 20:06:00,81.9,77.7,29.87,WNW,286,2.0,2.0,87,0.00,,,0.25,VWS V14.00,2013-07-12 00:06:00,
2013-07-11 20:11:00,81.8,77.6,29.87,SSW,213,1.0,2.0,87,0.00,,,0.25,VWS V14.00,2013-07-12 00:11:00,
2013-07-11 20:17:00,81.6,77.7,29.87,SSE,165,0.0,3.0,88,0.00,,,0.25,VWS V14.00,2013-07-12 00:17:00,
2013-07-11 20:22:00,81.5,77.6,29.88,SSW,205,0.0,1.0,88,0.00,,,0.25,VWS V14.00,2013-07-12 00:22:00,
2013-07-11 20:27:00,81.3,77.4,29.88,SSW,205,0.0,1.0,88,0.00,,,0.25,VWS V14.00,2013-07-12 00:27:00,
2013-07-11 20:32:00,81.2,77.3,29.88,SSW,205,0.0,1.0,88,0.00,,,0.25,VWS V14.00,2013-07-12 00:32:00,
2013-07-11 20:37:00,81.1,77.6,29.88,SSW,205,0.0,2.0,89,0.00,,,0.25,VWS V14.00,2013-07-12 00:37:00,
2013-07-11 20:42:00,80.9,77.4,29.88,SW,232,0.0,2.0,89,0.00,,,0.25,VWS V14.00,2013-07-12 00:42:00,
2013-07-11 20:47:00,80.9,77.4,29.88,South,188,1.0,2.0,89,0.00,,,0.25,VWS V14.00,2013-07-12 00:47:00,
2013-07-11 20:53:00,80.9,77.4,29.89,SSW,212,0.0,1.0,89,0.00,,,0.25,VWS V14.00,2013-07-12 00:53:00,
2013-07-11 20:58:00,80.8,77.3,29.89,WSW,244,0.0,2.0,89,0.00,,,0.25,VWS V14.00,2013-07-12 00:58:00,
2013-07-11 21:03:00,80.8,77.3,29.88,SW,232,1.0,1.0,89,0.00,,,0.25,VWS V14.00,2013-07-12 01:03:00,
2013-07-11 21:09:00,80.7,76.8,29.88,WNW,296,1.0,2.0,88,0.00,,,0.25,VWS V14.00,2013-07-12 01:09:00,
2013-07-11 21:14:00,80.7,77.2,29.88,South,191,0.0,2.0,89,0.00,,,0.25,VWS V14.00,2013-07-12 01:14:00,
2013-07-11 21:20:00,80.7,77.2,29.88,SW,217,1.0,3.0,89,0.00,,,0.25,VWS V14.00,2013-07-12 01:20:00,
2013-07-11 21:25:00,80.6,77.1,29.88,SSW,207,0.0,2.0,89,0.00,,,0.25,VWS V14.00,2013-07-12 01:25:00,
2013-07-11 21:30:00,80.5,77.0,29.87,SSW,213,0.0,4.0,89,0.00,,,0.25,VWS V14.00,2013-07-12 01:30:00,
2013-07-11 21:35:00,80.5,77.0,29.87,WSW,250,1.0,3.0,89,0.00,,,0.25,VWS V14.00,2013-07-12 01:35:00,
2013-07-11 21:41:00,80.4,76.9,29.88,SSW,213,0.0,4.0,89,0.00,,,0.25,VWS V14.00,2013-07-12 01:41:00,
2013-07-11 21:46:00,80.4,76.9,29.88,SW,234,0.0,2.0,89,0.00,,,0.25,VWS V14.00,2013-07-12 01:46:00,
2013-07-11 21:51:00,80.4,76.9,29.88,SSE,164,1.0,1.0,89,0.00,,,0.25,VWS V14.00,2013-07-12 01:51:00,
2013-07-11 21:56:00,80.4,76.9,29.88,SSW,196,0.0,2.0,89,0.00,,,0.25,VWS V14.00,2013-07-12 01:56:00,
2013-07-11 22:02:00,80.4,76.9,29.88,SSW,197,0.0,1.0,89,0.00,,,0.25,VWS V14.00,2013-07-12 02:02:00,
2013-07-11 22:07:00,80.3,77.1,29.89,SW,218,0.0,1.0,90,0.00,,,0.25,VWS V14.00,2013-07-12 02:07:00,
2013-07-11 22:12:00,80.4,77.2,29.89,SW,218,0.0,0.0,90,0.00,,,0.25,VWS V14.00,2013-07-12 02:12:00,
2013-07-11 22:17:00,80.4,77.2,29.89,SW,221,0.0,2.0,90,0.00,,,0.25,VWS V14.00,2013-07-12 02:17:00,
2013-07-11 22:23:00,80.5,77.3,29.89,SW,221,0.0,0.0,90,0.00,,,0.25,VWS V14.00,2013-07-12 02:23:00,
2013-07-11 22:28:00,80.6,77.4,29.90,SW,221,0.0,1.0,90,0.00,,,0.25,VWS V14.00,2013-07-12 02:28:00,
2013-07-11 22:33:00,80.6,77.4,29.90,SSW,209,0.0,1.0,90,0.00,,,0.25,VWS V14.00,2013-07-12 02:33:00,
2013-07-11 22:38:00,80.6,77.4,29.90,SSW,209,0.0,2.0,90,0.00,,,0.25,VWS V14.00,2013-07-12 02:38:00,
2013-07-11 22:43:00,80.6,77.4,29.89,WSW,250,0.0,1.0,90,0.00,,,0.25,VWS V14.00,2013-07-12 02:43:00,
2013-07-11 22:49:00,80.6,77.4,29.89,WSW,257,0.0,2.0,90,0.00,,,0.25,VWS V14.00,2013-07-12 02:49:00,
2013-07-11 22:54:00,80.7,77.2,29.89,SSW,206,2.0,6.0,89,0.00,,,0.25,VWS V14.00,2013-07-12 02:54:00,
2013-07-11 22:59:00,80.7,77.2,29.89,SW,224,1.0,6.0,89,0.00,,,0.25,VWS V14.00,2013-07-12 02:59:00,
2013-07-11 23:04:00,80.8,77.3,29.89,SW,232,1.0,4.0,89,0.00,,,0.25,VWS V14.00,2013-07-12 03:04:00,
2013-07-11 23:09:00,80.9,77.0,29.89,SW,223,0.0,4.0,88,0.00,,,0.25,VWS V14.00,2013-07-12 03:09:00,
2013-07-11 23:14:00,80.9,77.0,29.89,SSW,200,4.0,4.0,88,0.00,,,0.25,VWS V14.00,2013-07-12 03:14:00,
2013-07-11 23:19:00,81.0,77.1,29.89,NNE,24,1.0,4.0,88,0.00,,,0.25,VWS V14.00,2013-07-12 03:19:00,
2013-07-11 23:25:00,81.1,76.9,29.89,SSW,200,0.0,3.0,87,0.00,,,0.25,VWS V14.00,2013-07-12 03:25:00,
2013-07-11 23:30:00,81.1,76.9,29.90,WNW,283,0.0,6.0,87,0.00,,,0.25,VWS V14.00,2013-07-12 03:30:00,
2013-07-11 23:35:00,81.1,76.9,29.90,South,169,1.0,4.0,87,0.00,,,0.25,VWS V14.00,2013-07-12 03:35:00,
2013-07-11 23:40:00,81.1,76.9,29.90,West,276,0.0,4.0,87,0.00,,,0.25,VWS V14.00,2013-07-12 03:40:00,
2013-07-11 23:45:00,81.1,76.9,29.90,WSW,242,0.0,3.0,87,0.00,,,0.25,VWS V14.00,2013-07-12 03:45:00,
2013-07-11 23:51:00,81.2,77.0,29.90,NW,310,0.0,5.0,87,0.00,,,0.25,VWS V14.00,2013-07-12 03:51:00,
2013-07-11 23:56:00,81.2,77.0,29.89,NNW,346,0.0,2.0,87,0.00,,,0.25,VWS V14.00,2013-07-12 03:56:00,